Bridge of Weir, United Kingdom
Current Conditions -  °F | °C
As of 7:20 AM on Thursday 23 Oct 2014 (Local Time) from EGPF Reporting Station
Moderate Rain Moderate Rain  
Wind Chill: 54°   Ceiling: 1100
Heat Index: 54°   Visibility: 2.6mi
Dew Point: 52°   Wind: 17mph
Humidity: 94%   Direction: 220°SW
Pressure: 29.8"   Gusts: NA
Location:  55.85°N, 4.58°W
Report Text: EGPF 230620Z AUTO 22015KT 4200 RA OVC011/// //////TCU 12/11 Q1009
Loading
Personal Weather Stations






























Interactive Weather Map
Tropical Storm Tracking
New forecast layout! Learn more

10-Day Weather Forecast

Advertisements
Track Severe Weather on mobile